sensor_id;sensor_type;location;lat;lon;timestamp;pressure;altitude;pressure_sealevel;temperature;humidity
55755;BME280;41674;52.290;-1.474;2024-01-25T00:00:54;102277.71;;;4.77;73.93
55755;BME280;41674;52.290;-1.474;2024-01-25T00:03:24;102281.69;;;5.36;73.14
55755;BME280;41674;52.290;-1.474;2024-01-25T00:05:54;102281.99;;;5.26;74.99
55755;BME280;41674;52.290;-1.474;2024-01-25T00:08:23;102277.32;;;5.45;72.29
55755;BME280;41674;52.290;-1.474;2024-01-25T00:10:53;102275.82;;;5.39;73.93
55755;BME280;41674;52.290;-1.474;2024-01-25T00:13:23;102275.65;;;5.54;76.28
55755;BME280;41674;52.290;-1.474;2024-01-25T00:15:52;102272.72;;;5.66;79.20
55755;BME280;41674;52.290;-1.474;2024-01-25T00:18:21;102275.74;;;5.15;82.89
55755;BME280;41674;52.290;-1.474;2024-01-25T00:20:50;102271.43;;;5.47;84.31
55755;BME280;41674;52.290;-1.474;2024-01-25T00:23:21;102265.37;;;5.70;83.42
55755;BME280;41674;52.290;-1.474;2024-01-25T00:25:50;102266.84;;;5.52;82.25
55755;BME280;41674;52.290;-1.474;2024-01-25T00:28:19;102262.74;;;6.10;79.73
55755;BME280;41674;52.290;-1.474;2024-01-25T00:30:48;102250.15;;;4.47;79.27
55755;BME280;41674;52.290;-1.474;2024-01-25T00:33:17;102246.77;;;5.36;75.09
55755;BME280;41674;52.290;-1.474;2024-01-25T00:35:48;102246.13;;;5.36;73.92
55755;BME280;41674;52.290;-1.474;2024-01-25T00:38:17;102246.73;;;5.15;74.09
55755;BME280;41674;52.290;-1.474;2024-01-25T00:40:47;102247.11;;;5.24;74.03
55755;BME280;41674;52.290;-1.474;2024-01-25T00:43:16;102245.97;;;5.46;72.86
55755;BME280;41674;52.290;-1.474;2024-01-25T00:45:48;102245.64;;;4.76;75.21
55755;BME280;41674;52.290;-1.474;2024-01-25T00:48:16;102245.71;;;4.66;74.61
55755;BME280;41674;52.290;-1.474;2024-01-25T00:50:45;102246.02;;;4.59;74.32
55755;BME280;41674;52.290;-1.474;2024-01-25T00:53:15;102253.76;;;5.05;73.46
55755;BME280;41674;52.290;-1.474;2024-01-25T00:55:45;102250.68;;;5.64;73.60
55755;BME280;41674;52.290;-1.474;2024-01-25T00:58:16;102244.51;;;5.87;74.82
55755;BME280;41674;52.290;-1.474;2024-01-25T01:00:44;102242.65;;;5.62;76.92
55755;BME280;41674;52.290;-1.474;2024-01-25T01:03:16;102235.46;;;5.55;79.13
55755;BME280;41674;52.290;-1.474;2024-01-25T01:05:43;102227.56;;;5.45;78.67
55755;BME280;41674;52.290;-1.474;2024-01-25T01:08:13;102222.97;;;4.38;78.56
55755;BME280;41674;52.290;-1.474;2024-01-25T01:10:42;102219.11;;;3.93;80.91
55755;BME280;41674;52.290;-1.474;2024-01-25T01:13:11;102217.24;;;3.65;79.85
55755;BME280;41674;52.290;-1.474;2024-01-25T01:15:41;102221.97;;;5.19;73.92
55755;BME280;41674;52.290;-1.474;2024-01-25T01:18:10;102221.05;;;3.84;81.57
55755;BME280;41674;52.290;-1.474;2024-01-25T01:20:42;102222.71;;;4.70;77.95
55755;BME280;41674;52.290;-1.474;2024-01-25T01:23:10;102214.52;;;5.26;77.10
55755;BME280;41674;52.290;-1.474;2024-01-25T01:25:41;102213.07;;;4.52;80.59
55755;BME280;41674;52.290;-1.474;2024-01-25T01:28:08;102208.91;;;5.09;81.78
55755;BME280;41674;52.290;-1.474;2024-01-25T01:30:38;102203.51;;;4.73;84.37
55755;BME280;41674;52.290;-1.474;2024-01-25T01:33:08;102199.92;;;4.50;91.42
55755;BME280;41674;52.290;-1.474;2024-01-25T01:35:39;102196.61;;;3.99;97.02
55755;BME280;41674;52.290;-1.474;2024-01-25T01:38:07;102190.20;;;4.51;97.72
55755;BME280;41674;52.290;-1.474;2024-01-25T01:40:37;102192.29;;;4.50;96.28
55755;BME280;41674;52.290;-1.474;2024-01-25T01:43:06;102191.97;;;5.37;93.06
55755;BME280;41674;52.290;-1.474;2024-01-25T01:45:36;102191.04;;;5.22;91.11
55755;BME280;41674;52.290;-1.474;2024-01-25T01:48:06;102187.93;;;4.78;89.87
55755;BME280;41674;52.290;-1.474;2024-01-25T01:50:35;102172.85;;;4.67;86.16
55755;BME280;41674;52.290;-1.474;2024-01-25T01:53:04;102166.11;;;5.62;80.34
55755;BME280;41674;52.290;-1.474;2024-01-25T01:55:34;102170.38;;;5.85;78.63
55755;BME280;41674;52.290;-1.474;2024-01-25T01:58:03;102170.20;;;5.90;78.60
55755;BME280;41674;52.290;-1.474;2024-01-25T02:00:34;102164.28;;;5.99;79.55
55755;BME280;41674;52.290;-1.474;2024-01-25T02:03:03;102155.52;;;5.69;81.54
55755;BME280;41674;52.290;-1.474;2024-01-25T02:05:32;102142.30;;;5.87;81.08
55755;BME280;41674;52.290;-1.474;2024-01-25T02:08:05;102138.02;;;5.80;82.00
55755;BME280;41674;52.290;-1.474;2024-01-25T02:10:31;102129.72;;;6.00;82.19
55755;BME280;41674;52.290;-1.474;2024-01-25T02:13:00;102132.14;;;6.09;82.33
55755;BME280;41674;52.290;-1.474;2024-01-25T02:15:30;102133.23;;;6.43;81.65
55755;BME280;41674;52.290;-1.474;2024-01-25T02:17:59;102132.05;;;6.65;80.48
55755;BME280;41674;52.290;-1.474;2024-01-25T02:20:29;102128.43;;;6.38;81.53
55755;BME280;41674;52.290;-1.474;2024-01-25T02:22:59;102129.40;;;6.66;79.50
55755;BME280;41674;52.290;-1.474;2024-01-25T02:25:30;102125.79;;;6.75;79.00
55755;BME280;41674;52.290;-1.474;2024-01-25T02:27:59;102121.28;;;6.69;78.82
55755;BME280;41674;52.290;-1.474;2024-01-25T02:30:28;102117.26;;;6.74;78.06
55755;BME280;41674;52.290;-1.474;2024-01-25T02:32:59;102111.96;;;6.27;82.28
55755;BME280;41674;52.290;-1.474;2024-01-25T02:35:27;102111.06;;;5.94;82.71
55755;BME280;41674;52.290;-1.474;2024-01-25T02:37:56;102113.14;;;5.74;88.71
55755;BME280;41674;52.290;-1.474;2024-01-25T02:40:26;102116.78;;;4.94;95.12
55755;BME280;41674;52.290;-1.474;2024-01-25T02:42:57;102109.64;;;5.49;94.29
55755;BME280;41674;52.290;-1.474;2024-01-25T02:45:25;102103.15;;;6.09;91.14
55755;BME280;41674;52.290;-1.474;2024-01-25T02:47:54;102103.36;;;6.42;89.10
55755;BME280;41674;52.290;-1.474;2024-01-25T02:50:24;102105.91;;;6.08;89.82
55755;BME280;41674;52.290;-1.474;2024-01-25T02:52:54;102101.35;;;6.65;88.87
55755;BME280;41674;52.290;-1.474;2024-01-25T02:55:24;102086.57;;;5.49;92.62
55755;BME280;41674;52.290;-1.474;2024-01-25T02:57:52;102089.51;;;6.44;89.62
55755;BME280;41674;52.290;-1.474;2024-01-25T03:00:23;102092.93;;;6.47;88.98
55755;BME280;41674;52.290;-1.474;2024-01-25T03:02:51;102087.74;;;6.54;89.68
55755;BME280;41674;52.290;-1.474;2024-01-25T03:05:21;102084.79;;;6.91;88.71
55755;BME280;41674;52.290;-1.474;2024-01-25T03:07:51;102077.11;;;7.04;87.94
55755;BME280;41674;52.290;-1.474;2024-01-25T03:10:20;102083.16;;;6.52;87.58
55755;BME280;41674;52.290;-1.474;2024-01-25T03:12:50;102080.18;;;7.19;86.51
55755;BME280;41674;52.290;-1.474;2024-01-25T03:15:19;102076.05;;;7.09;85.87
55755;BME280;41674;52.290;-1.474;2024-01-25T03:17:49;102066.17;;;7.51;85.88
55755;BME280;41674;52.290;-1.474;2024-01-25T03:20:18;102067.20;;;7.44;85.29
55755;BME280;41674;52.290;-1.474;2024-01-25T03:22:48;102065.18;;;6.68;88.12
55755;BME280;41674;52.290;-1.474;2024-01-25T03:25:21;102057.15;;;6.56;90.03
55755;BME280;41674;52.290;-1.474;2024-01-25T03:27:47;102043.25;;;6.99;88.81
55755;BME280;41674;52.290;-1.474;2024-01-25T03:30:17;102039.55;;;7.37;88.30
55755;BME280;41674;52.290;-1.474;2024-01-25T03:32:48;102035.07;;;7.48;86.88
55755;BME280;41674;52.290;-1.474;2024-01-25T03:35:16;102032.84;;;7.58;87.96
55755;BME280;41674;52.290;-1.474;2024-01-25T03:37:46;102023.52;;;7.61;87.21
55755;BME280;41674;52.290;-1.474;2024-01-25T03:40:15;102021.39;;;7.31;88.54
55755;BME280;41674;52.290;-1.474;2024-01-25T03:42:47;102020.05;;;7.16;88.66
55755;BME280;41674;52.290;-1.474;2024-01-25T03:45:15;102021.17;;;6.73;90.24
55755;BME280;41674;52.290;-1.474;2024-01-25T03:47:46;102024.42;;;7.18;90.17
55755;BME280;41674;52.290;-1.474;2024-01-25T03:50:14;102028.97;;;7.57;88.86
55755;BME280;41674;52.290;-1.474;2024-01-25T03:52:43;102031.52;;;7.63;87.36
55755;BME280;41674;52.290;-1.474;2024-01-25T03:55:14;102031.82;;;8.01;87.51
55755;BME280;41674;52.290;-1.474;2024-01-25T03:57:42;102027.90;;;7.36;89.72
55755;BME280;41674;52.290;-1.474;2024-01-25T04:00:13;102019.30;;;7.91;87.22
55755;BME280;41674;52.290;-1.474;2024-01-25T04:02:42;102013.64;;;7.74;87.54
55755;BME280;41674;52.290;-1.474;2024-01-25T04:05:11;102013.84;;;8.14;86.32
55755;BME280;41674;52.290;-1.474;2024-01-25T04:07:41;102007.60;;;8.02;85.77
55755;BME280;41674;52.290;-1.474;2024-01-25T04:10:10;102005.62;;;8.21;84.69
55755;BME280;41674;52.290;-1.474;2024-01-25T04:12:40;101997.85;;;8.25;84.56
55755;BME280;41674;52.290;-1.474;2024-01-25T04:15:10;101989.09;;;8.39;83.89
55755;BME280;41674;52.290;-1.474;2024-01-25T04:17:39;101990.56;;;7.91;85.78
55755;BME280;41674;52.290;-1.474;2024-01-25T04:20:10;101979.47;;;8.59;83.63
55755;BME280;41674;52.290;-1.474;2024-01-25T04:22:38;101970.20;;;8.47;82.92
55755;BME280;41674;52.290;-1.474;2024-01-25T04:25:08;101962.93;;;8.55;82.42
55755;BME280;41674;52.290;-1.474;2024-01-25T04:27:38;101962.49;;;8.49;82.61
55755;BME280;41674;52.290;-1.474;2024-01-25T04:30:08;101963.93;;;8.58;82.36
55755;BME280;41674;52.290;-1.474;2024-01-25T04:32:37;101957.33;;;8.22;82.79
55755;BME280;41674;52.290;-1.474;2024-01-25T04:35:08;101960.19;;;7.91;85.65
55755;BME280;41674;52.290;-1.474;2024-01-25T04:37:36;101958.48;;;8.51;82.94
55755;BME280;41674;52.290;-1.474;2024-01-25T04:40:06;101961.13;;;8.51;81.95
55755;BME280;41674;52.290;-1.474;2024-01-25T04:42:37;101962.04;;;8.58;81.67
55755;BME280;41674;52.290;-1.474;2024-01-25T04:45:06;101961.90;;;8.57;81.57
55755;BME280;41674;52.290;-1.474;2024-01-25T04:47:36;101953.16;;;8.29;82.94
55755;BME280;41674;52.290;-1.474;2024-01-25T04:50:05;101951.90;;;8.39;82.39
55755;BME280;41674;52.290;-1.474;2024-01-25T04:52:33;101944.22;;;8.76;81.92
55755;BME280;41674;52.290;-1.474;2024-01-25T04:55:03;101944.90;;;8.47;82.24
55755;BME280;41674;52.290;-1.474;2024-01-25T04:57:33;101942.46;;;8.46;82.52
55755;BME280;41674;52.290;-1.474;2024-01-25T05:00:03;101941.50;;;8.53;82.46
55755;BME280;41674;52.290;-1.474;2024-01-25T05:02:32;101941.58;;;8.44;82.61
55755;BME280;41674;52.290;-1.474;2024-01-25T05:05:03;101940.21;;;8.51;82.54
55755;BME280;41674;52.290;-1.474;2024-01-25T05:07:31;101940.45;;;8.28;82.89
55755;BME280;41674;52.290;-1.474;2024-01-25T05:10:02;101941.75;;;7.95;85.59
55755;BME280;41674;52.290;-1.474;2024-01-25T05:12:32;101946.48;;;8.23;84.33
55755;BME280;41674;52.290;-1.474;2024-01-25T05:15:00;101943.01;;;8.37;82.65
55755;BME280;41674;52.290;-1.474;2024-01-25T05:17:29;101937.87;;;8.52;82.15
55755;BME280;41674;52.290;-1.474;2024-01-25T05:19:59;101940.77;;;8.22;83.14
55755;BME280;41674;52.290;-1.474;2024-01-25T05:22:28;101937.74;;;8.42;81.99
55755;BME280;41674;52.290;-1.474;2024-01-25T05:24:58;101936.46;;;8.03;83.99
55755;BME280;41674;52.290;-1.474;2024-01-25T05:27:27;101933.61;;;8.05;84.98
55755;BME280;41674;52.290;-1.474;2024-01-25T05:29:57;101927.84;;;7.56;87.52
55755;BME280;41674;52.290;-1.474;2024-01-25T05:32:27;101927.93;;;7.96;88.67
55755;BME280;41674;52.290;-1.474;2024-01-25T05:34:56;101926.96;;;8.35;89.05
55755;BME280;41674;52.290;-1.474;2024-01-25T05:37:28;101930.12;;;8.18;90.59
55755;BME280;41674;52.290;-1.474;2024-01-25T05:39:55;101925.85;;;7.52;97.03
55755;BME280;41674;52.290;-1.474;2024-01-25T05:42:25;101918.05;;;8.29;95.00
55755;BME280;41674;52.290;-1.474;2024-01-25T05:44:55;101915.99;;;7.37;99.02
55755;BME280;41674;52.290;-1.474;2024-01-25T05:47:24;101907.64;;;7.89;96.37
55755;BME280;41674;52.290;-1.474;2024-01-25T05:49:54;101904.23;;;7.93;97.61
55755;BME280;41674;52.290;-1.474;2024-01-25T05:52:24;101896.69;;;8.14;100.00
55755;BME280;41674;52.290;-1.474;2024-01-25T05:54:54;101888.20;;;7.88;99.51
55755;BME280;41674;52.290;-1.474;2024-01-25T05:57:23;101881.64;;;8.09;97.14
55755;BME280;41674;52.290;-1.474;2024-01-25T05:59:52;101870.85;;;8.35;95.75
55755;BME280;41674;52.290;-1.474;2024-01-25T06:02:22;101864.37;;;8.49;94.55
55755;BME280;41674;52.290;-1.474;2024-01-25T06:04:53;101862.81;;;8.72;93.23
55755;BME280;41674;52.290;-1.474;2024-01-25T06:07:23;101866.34;;;8.18;95.99
55755;BME280;41674;52.290;-1.474;2024-01-25T06:09:50;101865.07;;;8.76;93.85
55755;BME280;41674;52.290;-1.474;2024-01-25T06:12:20;101866.14;;;7.73;100.00
55755;BME280;41674;52.290;-1.474;2024-01-25T06:14:49;101867.54;;;8.55;96.54
55755;BME280;41674;52.290;-1.474;2024-01-25T06:17:19;101862.85;;;8.39;97.45
55755;BME280;41674;52.290;-1.474;2024-01-25T06:19:50;101861.62;;;8.23;95.44
55755;BME280;41674;52.290;-1.474;2024-01-25T06:22:18;101861.60;;;8.61;95.46
55755;BME280;41674;52.290;-1.474;2024-01-25T06:24:49;101861.39;;;8.58;94.14
55755;BME280;41674;52.290;-1.474;2024-01-25T06:27:17;101856.03;;;9.07;92.50
55755;BME280;41674;52.290;-1.474;2024-01-25T06:29:47;101859.52;;;9.19;90.94
55755;BME280;41674;52.290;-1.474;2024-01-25T06:32:16;101857.02;;;8.93;91.35
55755;BME280;41674;52.290;-1.474;2024-01-25T06:34:47;101860.33;;;9.07;90.00
55755;BME280;41674;52.290;-1.474;2024-01-25T06:37:15;101857.89;;;9.08;90.73
55755;BME280;41674;52.290;-1.474;2024-01-25T06:39:47;101855.37;;;7.40;98.37
55755;BME280;41674;52.290;-1.474;2024-01-25T06:42:14;101852.50;;;8.17;95.51
55755;BME280;41674;52.290;-1.474;2024-01-25T06:44:44;101853.10;;;8.75;93.14
55755;BME280;41674;52.290;-1.474;2024-01-25T06:47:14;101852.16;;;8.99;91.85
55755;BME280;41674;52.290;-1.474;2024-01-25T06:49:43;101850.47;;;8.32;93.96
55755;BME280;41674;52.290;-1.474;2024-01-25T06:52:13;101844.57;;;8.38;91.95
55755;BME280;41674;52.290;-1.474;2024-01-25T06:54:42;101839.64;;;8.52;92.58
55755;BME280;41674;52.290;-1.474;2024-01-25T06:57:12;101834.82;;;8.29;94.14
55755;BME280;41674;52.290;-1.474;2024-01-25T06:59:41;101835.71;;;8.79;91.40
55755;BME280;41674;52.290;-1.474;2024-01-25T07:02:11;101840.93;;;8.91;91.67
55755;BME280;41674;52.290;-1.474;2024-01-25T07:04:40;101832.46;;;8.91;90.92
55755;BME280;41674;52.290;-1.474;2024-01-25T07:07:11;101831.44;;;9.24;90.39
55755;BME280;41674;52.290;-1.474;2024-01-25T07:09:40;101826.55;;;9.27;90.82
55755;BME280;41674;52.290;-1.474;2024-01-25T07:12:10;101823.07;;;8.56;93.29
55755;BME280;41674;52.290;-1.474;2024-01-25T07:14:40;101823.82;;;8.95;93.04
55755;BME280;41674;52.290;-1.474;2024-01-25T07:17:11;101821.96;;;8.23;94.58
55755;BME280;41674;52.290;-1.474;2024-01-25T07:19:38;101823.81;;;7.98;100.00
55755;BME280;41674;52.290;-1.474;2024-01-25T07:22:09;101810.98;;;8.19;100.00
55755;BME280;41674;52.290;-1.474;2024-01-25T07:24:38;101827.78;;;8.34;100.00
55755;BME280;41674;52.290;-1.474;2024-01-25T07:27:07;101821.24;;;7.61;100.00
55755;BME280;41674;52.290;-1.474;2024-01-25T07:29:36;101824.17;;;8.47;100.00
55755;BME280;41674;52.290;-1.474;2024-01-25T07:32:06;101818.22;;;8.38;100.00
55755;BME280;41674;52.290;-1.474;2024-01-25T07:34:36;101810.27;;;9.06;100.00
55755;BME280;41674;52.290;-1.474;2024-01-25T07:37:05;101807.81;;;9.29;99.94
55755;BME280;41674;52.290;-1.474;2024-01-25T07:39:37;101808.88;;;8.83;100.00
55755;BME280;41674;52.290;-1.474;2024-01-25T07:42:05;101812.83;;;8.63;100.00
55755;BME280;41674;52.290;-1.474;2024-01-25T07:44:36;101811.58;;;7.99;100.00
55755;BME280;41674;52.290;-1.474;2024-01-25T07:47:04;101811.34;;;8.12;100.00
55755;BME280;41674;52.290;-1.474;2024-01-25T07:49:33;101801.59;;;8.04;100.00
55755;BME280;41674;52.290;-1.474;2024-01-25T07:52:05;101792.62;;;8.39;100.00
55755;BME280;41674;52.290;-1.474;2024-01-25T07:54:33;101787.66;;;9.10;100.00
55755;BME280;41674;52.290;-1.474;2024-01-25T07:57:03;101780.14;;;8.21;100.00
55755;BME280;41674;52.290;-1.474;2024-01-25T07:59:32;101778.78;;;8.14;100.00
55755;BME280;41674;52.290;-1.474;2024-01-25T08:02:02;101773.23;;;8.06;100.00
55755;BME280;41674;52.290;-1.474;2024-01-25T08:04:31;101776.48;;;8.22;100.00
55755;BME280;41674;52.290;-1.474;2024-01-25T08:07:01;101779.97;;;8.10;100.00
55755;BME280;41674;52.290;-1.474;2024-01-25T08:09:30;101783.55;;;8.07;100.00
55755;BME280;41674;52.290;-1.474;2024-01-25T08:12:00;101787.98;;;7.85;100.00
55755;BME280;41674;52.290;-1.474;2024-01-25T08:14:31;101790.98;;;7.80;100.00
55755;BME280;41674;52.290;-1.474;2024-01-25T08:16:59;101787.70;;;7.48;100.00
55755;BME280;41674;52.290;-1.474;2024-01-25T08:19:29;101779.25;;;7.60;100.00
55755;BME280;41674;52.290;-1.474;2024-01-25T08:21:58;101776.22;;;7.77;100.00
55755;BME280;41674;52.290;-1.474;2024-01-25T08:24:28;101773.63;;;7.67;100.00
55755;BME280;41674;52.290;-1.474;2024-01-25T08:26:58;101779.77;;;7.42;100.00
55755;BME280;41674;52.290;-1.474;2024-01-25T08:29:29;101776.14;;;8.14;100.00
55755;BME280;41674;52.290;-1.474;2024-01-25T08:31:59;101776.65;;;8.15;100.00
55755;BME280;41674;52.290;-1.474;2024-01-25T08:34:26;101778.21;;;8.49;100.00
55755;BME280;41674;52.290;-1.474;2024-01-25T08:36:56;101768.36;;;8.40;100.00
55755;BME280;41674;52.290;-1.474;2024-01-25T08:39:26;101755.68;;;8.03;100.00
55755;BME280;41674;52.290;-1.474;2024-01-25T08:41:57;101750.82;;;7.90;100.00
55755;BME280;41674;52.290;-1.474;2024-01-25T08:44:25;101753.15;;;8.56;100.00
55755;BME280;41674;52.290;-1.474;2024-01-25T08:46:55;101747.38;;;8.84;100.00
55755;BME280;41674;52.290;-1.474;2024-01-25T08:49:24;101754.47;;;8.80;100.00
55755;BME280;41674;52.290;-1.474;2024-01-25T08:51:54;101760.47;;;8.24;100.00
55755;BME280;41674;52.290;-1.474;2024-01-25T08:54:23;101756.83;;;8.88;100.00
55755;BME280;41674;52.290;-1.474;2024-01-25T08:56:53;101757.04;;;8.93;100.00
55755;BME280;41674;52.290;-1.474;2024-01-25T08:59:23;101755.51;;;8.67;100.00
55755;BME280;41674;52.290;-1.474;2024-01-25T09:01:53;101750.32;;;8.40;100.00
55755;BME280;41674;52.290;-1.474;2024-01-25T09:04:21;101745.60;;;9.03;100.00
55755;BME280;41674;52.290;-1.474;2024-01-25T09:06:51;101742.70;;;7.57;100.00
55755;BME280;41674;52.290;-1.474;2024-01-25T09:09:20;101740.53;;;8.28;100.00
55755;BME280;41674;52.290;-1.474;2024-01-25T09:11:50;101739.17;;;8.96;100.00
55755;BME280;41674;52.290;-1.474;2024-01-25T09:14:20;101741.62;;;8.57;100.00
55755;BME280;41674;52.290;-1.474;2024-01-25T09:16:50;101735.94;;;8.84;100.00
55755;BME280;41674;52.290;-1.474;2024-01-25T09:19:19;101731.82;;;8.85;100.00
55755;BME280;41674;52.290;-1.474;2024-01-25T09:21:48;101724.71;;;9.35;100.00
55755;BME280;41674;52.290;-1.474;2024-01-25T09:24:18;101732.48;;;8.22;100.00
55755;BME280;41674;52.290;-1.474;2024-01-25T09:26:48;101731.42;;;8.11;100.00
55755;BME280;41674;52.290;-1.474;2024-01-25T09:29:17;101725.29;;;7.92;100.00
55755;BME280;41674;52.290;-1.474;2024-01-25T09:31:46;101721.30;;;7.99;100.00
55755;BME280;41674;52.290;-1.474;2024-01-25T09:34:17;101717.15;;;8.00;100.00
55755;BME280;41674;52.290;-1.474;2024-01-25T09:36:46;101716.68;;;8.41;100.00
55755;BME280;41674;52.290;-1.474;2024-01-25T09:39:15;101716.45;;;8.09;100.00
55755;BME280;41674;52.290;-1.474;2024-01-25T09:41:45;101719.69;;;8.05;100.00
55755;BME280;41674;52.290;-1.474;2024-01-25T09:44:14;101711.67;;;7.75;100.00
55755;BME280;41674;52.290;-1.474;2024-01-25T09:46:45;101722.00;;;8.54;100.00
55755;BME280;41674;52.290;-1.474;2024-01-25T09:49:14;101722.60;;;8.09;100.00
55755;BME280;41674;52.290;-1.474;2024-01-25T09:51:44;101720.98;;;8.26;100.00
55755;BME280;41674;52.290;-1.474;2024-01-25T09:54:14;101718.04;;;8.67;100.00
55755;BME280;41674;52.290;-1.474;2024-01-25T09:56:43;101712.52;;;8.67;100.00
55755;BME280;41674;52.290;-1.474;2024-01-25T09:59:12;101711.84;;;8.80;100.00
55755;BME280;41674;52.290;-1.474;2024-01-25T10:01:43;101716.55;;;8.74;100.00
55755;BME280;41674;52.290;-1.474;2024-01-25T10:04:11;101715.19;;;9.06;100.00
55755;BME280;41674;52.290;-1.474;2024-01-25T10:06:41;101711.62;;;8.72;100.00
55755;BME280;41674;52.290;-1.474;2024-01-25T10:09:11;101712.54;;;8.46;100.00
55755;BME280;41674;52.290;-1.474;2024-01-25T10:11:40;101715.50;;;7.76;100.00
55755;BME280;41674;52.290;-1.474;2024-01-25T10:14:09;101709.75;;;8.92;100.00
55755;BME280;41674;52.290;-1.474;2024-01-25T10:16:38;101717.29;;;8.47;100.00
55755;BME280;41674;52.290;-1.474;2024-01-25T10:19:09;101718.16;;;9.01;100.00
55755;BME280;41674;52.290;-1.474;2024-01-25T10:21:37;101717.47;;;9.24;100.00
55755;BME280;41674;52.290;-1.474;2024-01-25T10:24:06;101717.66;;;8.66;100.00
55755;BME280;41674;52.290;-1.474;2024-01-25T10:26:36;101716.89;;;9.53;100.00
55755;BME280;41674;52.290;-1.474;2024-01-25T10:29:05;101722.76;;;9.64;100.00
55755;BME280;41674;52.290;-1.474;2024-01-25T10:31:38;101713.22;;;9.38;100.00
55755;BME280;41674;52.290;-1.474;2024-01-25T10:34:05;101713.66;;;9.16;100.00
55755;BME280;41674;52.290;-1.474;2024-01-25T10:36:35;101699.99;;;8.89;100.00
55755;BME280;41674;52.290;-1.474;2024-01-25T10:39:04;101704.98;;;8.65;100.00
55755;BME280;41674;52.290;-1.474;2024-01-25T10:41:33;101707.73;;;9.54;100.00
55755;BME280;41674;52.290;-1.474;2024-01-25T10:44:03;101707.72;;;9.25;100.00
55755;BME280;41674;52.290;-1.474;2024-01-25T10:46:32;101711.98;;;8.22;100.00
55755;BME280;41674;52.290;-1.474;2024-01-25T10:49:02;101701.78;;;9.01;100.00
55755;BME280;41674;52.290;-1.474;2024-01-25T10:51:31;101697.77;;;9.33;100.00
55755;BME280;41674;52.290;-1.474;2024-01-25T10:54:01;101703.43;;;9.48;100.00
55755;BME280;41674;52.290;-1.474;2024-01-25T10:56:31;101701.70;;;9.83;100.00
55755;BME280;41674;52.290;-1.474;2024-01-25T10:59:00;101700.30;;;9.99;100.00
55755;BME280;41674;52.290;-1.474;2024-01-25T11:01:30;101707.18;;;9.89;100.00
55755;BME280;41674;52.290;-1.474;2024-01-25T11:03:59;101707.04;;;8.79;100.00
55755;BME280;41674;52.290;-1.474;2024-01-25T11:06:30;101694.10;;;9.57;100.00
55755;BME280;41674;52.290;-1.474;2024-01-25T11:09:04;101694.12;;;9.18;100.00
55755;BME280;41674;52.290;-1.474;2024-01-25T11:11:27;101698.46;;;9.25;100.00
55755;BME280;41674;52.290;-1.474;2024-01-25T11:13:58;101698.61;;;9.22;100.00
55755;BME280;41674;52.290;-1.474;2024-01-25T11:16:29;101699.25;;;8.53;100.00
55755;BME280;41674;52.290;-1.474;2024-01-25T11:18:59;101694.06;;;9.10;100.00
55755;BME280;41674;52.290;-1.474;2024-01-25T11:21:28;101695.55;;;8.82;100.00
55755;BME280;41674;52.290;-1.474;2024-01-25T11:24:01;101688.20;;;8.84;100.00
55755;BME280;41674;52.290;-1.474;2024-01-25T11:26:26;101669.01;;;9.06;100.00
55755;BME280;41674;52.290;-1.474;2024-01-25T11:28:55;101666.51;;;8.88;100.00
55755;BME280;41674;52.290;-1.474;2024-01-25T11:31:24;101667.69;;;9.82;100.00
55755;BME280;41674;52.290;-1.474;2024-01-25T11:33:58;101662.60;;;9.02;100.00
55755;BME280;41674;52.290;-1.474;2024-01-25T11:36:23;101657.74;;;9.28;100.00
55755;BME280;41674;52.290;-1.474;2024-01-25T11:38:53;101659.50;;;9.55;100.00
55755;BME280;41674;52.290;-1.474;2024-01-25T11:41:22;101658.22;;;10.01;100.00
55755;BME280;41674;52.290;-1.474;2024-01-25T11:43:52;101649.25;;;10.50;100.00
55755;BME280;41674;52.290;-1.474;2024-01-25T11:46:21;101645.12;;;10.19;100.00
55755;BME280;41674;52.290;-1.474;2024-01-25T11:48:51;101637.13;;;10.46;100.00
55755;BME280;41674;52.290;-1.474;2024-01-25T11:51:22;101639.67;;;9.11;100.00
55755;BME280;41674;52.290;-1.474;2024-01-25T11:53:50;101625.34;;;8.96;100.00
55755;BME280;41674;52.290;-1.474;2024-01-25T11:56:22;101629.02;;;9.50;100.00
55755;BME280;41674;52.290;-1.474;2024-01-25T11:58:50;101621.62;;;9.51;100.00
55755;BME280;41674;52.290;-1.474;2024-01-25T12:01:19;101619.69;;;9.14;100.00
55755;BME280;41674;52.290;-1.474;2024-01-25T12:03:48;101617.39;;;9.63;100.00
55755;BME280;41674;52.290;-1.474;2024-01-25T12:06:18;101615.93;;;9.03;100.00
55755;BME280;41674;52.290;-1.474;2024-01-25T12:08:47;101612.04;;;9.95;100.00
55755;BME280;41674;52.290;-1.474;2024-01-25T12:11:17;101609.72;;;9.84;100.00
55755;BME280;41674;52.290;-1.474;2024-01-25T12:13:46;101611.33;;;8.93;100.00
55755;BME280;41674;52.290;-1.474;2024-01-25T12:16:16;101605.99;;;9.49;100.00
55755;BME280;41674;52.290;-1.474;2024-01-25T12:18:46;101602.04;;;9.36;100.00
55755;BME280;41674;52.290;-1.474;2024-01-25T12:21:18;101600.75;;;9.46;100.00
55755;BME280;41674;52.290;-1.474;2024-01-25T12:23:45;101600.33;;;9.42;100.00
55755;BME280;41674;52.290;-1.474;2024-01-25T12:26:15;101594.16;;;9.23;100.00
55755;BME280;41674;52.290;-1.474;2024-01-25T12:28:46;101593.54;;;9.55;100.00
55755;BME280;41674;52.290;-1.474;2024-01-25T12:31:14;101589.85;;;9.69;100.00
55755;BME280;41674;52.290;-1.474;2024-01-25T12:33:43;101589.75;;;9.42;100.00
55755;BME280;41674;52.290;-1.474;2024-01-25T12:36:14;101587.71;;;9.33;100.00
55755;BME280;41674;52.290;-1.474;2024-01-25T12:38:42;101582.46;;;9.45;100.00
55755;BME280;41674;52.290;-1.474;2024-01-25T12:41:12;101578.96;;;9.95;100.00
55755;BME280;41674;52.290;-1.474;2024-01-25T12:43:43;101575.44;;;10.18;100.00
55755;BME280;41674;52.290;-1.474;2024-01-25T12:46:11;101570.35;;;10.80;100.00
55755;BME280;41674;52.290;-1.474;2024-01-25T12:48:41;101573.96;;;10.08;100.00
55755;BME280;41674;52.290;-1.474;2024-01-25T12:51:10;101562.39;;;10.47;100.00
55755;BME280;41674;52.290;-1.474;2024-01-25T12:53:40;101569.41;;;10.13;100.00
55755;BME280;41674;52.290;-1.474;2024-01-25T12:56:10;101565.29;;;9.66;100.00